ASA70 PANC-PAJN
Flight info
| Callsign | ASA70 |
|---|---|
| Flight time | 1h 14m |
| Altitude | 35000 |
| Route | JOH J501 YAK FAKES ASORT |
| Aircraft | B737/M-SDE2E3FGHIRWXY/LB1 |
Departure
| Time | 2026-04-22 03:13 |
|---|---|
| Airport | Ted Stevens Anchorage International Airport (PANC) |
Arrival
| Time | 2026-04-22 04:27 |
|---|---|
| Airport | Juneau International Airport (PAJN) |
| Time | Latitude | Longitude | Altitude | Speed | Heading |
|---|---|---|---|---|---|
| 2026-04-22 02:45 | 61.17388 | -149.98363 | 110 ft | 0 kts | 98° |
| 2026-04-22 03:05 | 61.17389 | -149.98384 | 110 ft | 4 kts | 100° |
| 2026-04-22 03:05 | 61.17395 | -149.98438 | 107 ft | 4 kts | 106° |
| 2026-04-22 03:06 | 61.17403 | -149.98491 | 107 ft | 4 kts | 111° |
| 2026-04-22 03:06 | 61.17414 | -149.98542 | 107 ft | 4 kts | 114° |
| 2026-04-22 03:06 | 61.17423 | -149.98587 | 108 ft | 1 kts | 110° |
| 2026-04-22 03:06 | 61.17423 | -149.98588 | 108 ft | 0 kts | 110° |
| 2026-04-22 03:08 | 61.17420 | -149.98579 | 108 ft | 2 kts | 129° |
| 2026-04-22 03:09 | 61.17397 | -149.98589 | 108 ft | 5 kts | 219° |
| 2026-04-22 03:09 | 61.17357 | -149.98646 | 109 ft | 9 kts | 213° |
| 2026-04-22 03:09 | 61.17291 | -149.98729 | 109 ft | 13 kts | 211° |
| 2026-04-22 03:09 | 61.17195 | -149.98748 | 112 ft | 15 kts | 162° |
| 2026-04-22 03:10 | 61.17122 | -149.98610 | 114 ft | 15 kts | 106° |
| 2026-04-22 03:10 | 61.17119 | -149.98377 | 114 ft | 18 kts | 89° |
| 2026-04-22 03:10 | 61.17118 | -149.98080 | 114 ft | 23 kts | 91° |
| 2026-04-22 03:10 | 61.17117 | -149.97717 | 109 ft | 28 kts | 90° |
| 2026-04-22 03:11 | 61.17126 | -149.97274 | 101 ft | 33 kts | 86° |
| 2026-04-22 03:11 | 61.17122 | -149.96880 | 98 ft | 23 kts | 111° |
| 2026-04-22 03:11 | 61.16958 | -149.96810 | 98 ft | 31 kts | 189° |
| 2026-04-22 03:11 | 61.16855 | -149.97155 | 103 ft | 28 kts | 249° |
| 2026-04-22 03:12 | 61.16791 | -149.97527 | 111 ft | 27 kts | 262° |
| 2026-04-22 03:12 | 61.16786 | -149.99140 | 124 ft | 118 kts | 270° |
| 2026-04-22 03:12 | 61.16788 | -150.01199 | 263 ft | 163 kts | 270° |
| 2026-04-22 03:13 | 61.16809 | -150.03620 | 947 ft | 175 kts | 267° |
| 2026-04-22 03:13 | 61.16737 | -150.06196 | 1799 ft | 179 kts | 263° |
| 2026-04-22 03:13 | 61.16646 | -150.08783 | 2737 ft | 185 kts | 262° |
| 2026-04-22 03:13 | 61.16542 | -150.11601 | 3324 ft | 203 kts | 264° |
| 2026-04-22 03:14 | 61.16285 | -150.14606 | 3750 ft | 222 kts | 238° |
| 2026-04-22 03:14 | 61.15140 | -150.16696 | 4534 ft | 225 kts | 202° |
| 2026-04-22 03:14 | 61.13529 | -150.17135 | 5207 ft | 247 kts | 173° |
| 2026-04-22 03:14 | 61.11907 | -150.15749 | 6133 ft | 262 kts | 144° |
| 2026-04-22 03:15 | 61.10777 | -150.12694 | 7051 ft | 277 kts | 117° |
| 2026-04-22 03:15 | 61.10110 | -150.08962 | 7949 ft | 285 kts | 110° |
| 2026-04-22 03:15 | 61.09515 | -150.05003 | 8845 ft | 292 kts | 108° |
| 2026-04-22 03:15 | 61.08920 | -150.00949 | 9752 ft | 298 kts | 108° |
| 2026-04-22 03:16 | 61.08300 | -149.96788 | 10460 ft | 311 kts | 108° |
| 2026-04-22 03:16 | 61.07624 | -149.92378 | 10882 ft | 331 kts | 109° |
| 2026-04-22 03:16 | 61.06903 | -149.87779 | 11565 ft | 342 kts | 109° |
| 2026-04-22 03:16 | 61.06151 | -149.83066 | 12337 ft | 350 kts | 110° |
| 2026-04-22 03:17 | 61.05371 | -149.78247 | 13111 ft | 358 kts | 110° |
| 2026-04-22 03:17 | 61.04565 | -149.73317 | 13916 ft | 367 kts | 110° |
| 2026-04-22 03:17 | 61.03733 | -149.68264 | 14662 ft | 375 kts | 110° |
| 2026-04-22 03:17 | 61.02880 | -149.63126 | 15445 ft | 382 kts | 110° |
| 2026-04-22 03:18 | 61.02007 | -149.57875 | 16183 ft | 391 kts | 110° |
| 2026-04-22 03:18 | 61.01133 | -149.52573 | 16910 ft | 398 kts | 109° |
| 2026-04-22 03:18 | 61.00231 | -149.47133 | 17721 ft | 404 kts | 110° |
| 2026-04-22 03:18 | 60.99297 | -149.41603 | 18475 ft | 413 kts | 110° |
| 2026-04-22 03:19 | 60.98340 | -149.35971 | 19205 ft | 418 kts | 110° |
| 2026-04-22 03:19 | 60.97376 | -149.30302 | 19988 ft | 421 kts | 111° |
| 2026-04-22 03:19 | 60.96402 | -149.24587 | 20749 ft | 425 kts | 111° |
| 2026-04-22 03:19 | 60.95416 | -149.18808 | 21488 ft | 430 kts | 111° |
| 2026-04-22 03:20 | 60.94418 | -149.12968 | 22187 ft | 436 kts | 111° |
| 2026-04-22 03:20 | 60.93415 | -149.07119 | 22889 ft | 441 kts | 111° |
| 2026-04-22 03:20 | 60.92386 | -149.01142 | 23582 ft | 446 kts | 111° |
| 2026-04-22 03:20 | 60.91346 | -148.95100 | 24214 ft | 449 kts | 111° |
| 2026-04-22 03:21 | 60.90308 | -148.89015 | 24854 ft | 451 kts | 110° |
| 2026-04-22 03:21 | 60.89268 | -148.82897 | 25459 ft | 456 kts | 111° |
| 2026-04-22 03:21 | 60.88203 | -148.76741 | 26017 ft | 459 kts | 109° |
| 2026-04-22 03:21 | 60.87103 | -148.70557 | 26555 ft | 463 kts | 112° |
| 2026-04-22 03:22 | 60.85963 | -148.64335 | 27059 ft | 468 kts | 111° |
| 2026-04-22 03:22 | 60.84858 | -148.58022 | 27617 ft | 472 kts | 109° |
| 2026-04-22 03:22 | 60.83765 | -148.51642 | 28147 ft | 475 kts | 110° |
| 2026-04-22 03:22 | 60.82636 | -148.45244 | 28662 ft | 479 kts | 110° |
| 2026-04-22 03:23 | 60.81487 | -148.38805 | 29181 ft | 483 kts | 111° |
| 2026-04-22 03:23 | 60.80324 | -148.32308 | 29704 ft | 487 kts | 110° |
| 2026-04-22 03:23 | 60.79148 | -148.25768 | 30156 ft | 491 kts | 110° |
| 2026-04-22 03:23 | 60.77981 | -148.19284 | 30599 ft | 493 kts | 110° |
| 2026-04-22 03:24 | 60.76795 | -148.12710 | 31142 ft | 491 kts | 110° |
| 2026-04-22 03:24 | 60.75613 | -148.06175 | 31713 ft | 490 kts | 110° |
| 2026-04-22 03:24 | 60.74427 | -147.99633 | 32216 ft | 490 kts | 110° |
| 2026-04-22 03:24 | 60.73238 | -147.93102 | 32664 ft | 490 kts | 111° |
| 2026-04-22 03:25 | 60.72045 | -147.86573 | 33110 ft | 491 kts | 111° |
| 2026-04-22 03:25 | 60.70849 | -147.80045 | 33591 ft | 491 kts | 111° |
| 2026-04-22 03:25 | 60.69649 | -147.73519 | 34071 ft | 490 kts | 111° |
| 2026-04-22 03:25 | 60.68447 | -147.67005 | 34473 ft | 489 kts | 111° |
| 2026-04-22 03:26 | 60.67244 | -147.60504 | 34889 ft | 487 kts | 111° |
| 2026-04-22 03:26 | 60.66062 | -147.54145 | 35151 ft | 490 kts | 111° |
| 2026-04-22 03:26 | 60.63624 | -147.41086 | 35123 ft | 489 kts | 111° |
| 2026-04-22 03:27 | 60.61211 | -147.28249 | 35126 ft | 483 kts | 111° |
| 2026-04-22 03:27 | 60.58793 | -147.15466 | 35142 ft | 485 kts | 111° |
| 2026-04-22 03:28 | 60.56360 | -147.02690 | 35137 ft | 488 kts | 111° |
| 2026-04-22 03:28 | 60.53891 | -146.89807 | 35151 ft | 490 kts | 111° |
| 2026-04-22 03:29 | 60.51409 | -146.76937 | 35138 ft | 489 kts | 111° |
| 2026-04-22 03:29 | 60.48914 | -146.64073 | 35129 ft | 488 kts | 111° |
| 2026-04-22 03:30 | 60.47232 | -146.53207 | 35139 ft | 484 kts | 101° |
| 2026-04-22 03:30 | 60.45789 | -146.39880 | 35129 ft | 483 kts | 100° |
| 2026-04-22 03:31 | 60.44370 | -146.26598 | 35132 ft | 482 kts | 101° |
| 2026-04-22 03:31 | 60.42890 | -146.13316 | 35139 ft | 483 kts | 101° |
| 2026-04-22 03:32 | 60.41375 | -146.00069 | 35122 ft | 483 kts | 101° |
| 2026-04-22 03:32 | 60.39841 | -145.86803 | 35125 ft | 484 kts | 101° |
| 2026-04-22 03:33 | 60.38305 | -145.73629 | 35106 ft | 485 kts | 101° |
| 2026-04-22 03:33 | 60.36748 | -145.60376 | 35118 ft | 485 kts | 101° |
| 2026-04-22 03:34 | 60.35176 | -145.47127 | 35125 ft | 485 kts | 102° |
| 2026-04-22 03:34 | 60.33591 | -145.33871 | 35119 ft | 485 kts | 102° |
| 2026-04-22 03:35 | 60.31991 | -145.20647 | 35118 ft | 485 kts | 102° |
| 2026-04-22 03:35 | 60.30377 | -145.07426 | 35120 ft | 484 kts | 102° |
| 2026-04-22 03:36 | 60.28756 | -144.94256 | 35114 ft | 484 kts | 102° |
| 2026-04-22 03:36 | 60.27127 | -144.81109 | 35115 ft | 483 kts | 102° |
| 2026-04-22 03:37 | 60.25484 | -144.67984 | 35126 ft | 484 kts | 102° |
| 2026-04-22 03:37 | 60.23831 | -144.54926 | 35128 ft | 484 kts | 102° |
| 2026-04-22 03:38 | 60.22175 | -144.41973 | 35124 ft | 474 kts | 102° |
| 2026-04-22 03:38 | 60.20514 | -144.29056 | 35109 ft | 479 kts | 102° |
| 2026-04-22 03:39 | 60.18830 | -144.16070 | 35109 ft | 481 kts | 102° |
| 2026-04-22 03:39 | 60.17129 | -144.03060 | 35118 ft | 481 kts | 102° |
| 2026-04-22 03:40 | 60.15417 | -143.90081 | 35111 ft | 480 kts | 102° |
| 2026-04-22 03:40 | 60.13699 | -143.77166 | 35112 ft | 478 kts | 103° |
| 2026-04-22 03:41 | 60.11974 | -143.64308 | 35116 ft | 477 kts | 103° |
| 2026-04-22 03:41 | 60.10239 | -143.51484 | 35117 ft | 475 kts | 103° |
| 2026-04-22 03:42 | 60.08508 | -143.38783 | 35118 ft | 475 kts | 103° |
| 2026-04-22 03:42 | 60.06753 | -143.26015 | 35117 ft | 475 kts | 103° |
| 2026-04-22 03:43 | 60.04987 | -143.13265 | 35122 ft | 476 kts | 103° |
| 2026-04-22 03:43 | 60.03201 | -143.00477 | 35115 ft | 477 kts | 103° |
| 2026-04-22 03:44 | 60.01404 | -142.87711 | 35118 ft | 477 kts | 103° |
| 2026-04-22 03:44 | 59.99592 | -142.74945 | 35118 ft | 478 kts | 103° |
| 2026-04-22 03:45 | 59.97765 | -142.62173 | 35117 ft | 478 kts | 103° |
| 2026-04-22 03:45 | 59.95924 | -142.49401 | 35119 ft | 478 kts | 104° |
| 2026-04-22 03:46 | 59.94073 | -142.36660 | 35117 ft | 478 kts | 103° |
| 2026-04-22 03:46 | 59.92222 | -142.24019 | 35120 ft | 477 kts | 104° |
| 2026-04-22 03:47 | 59.90348 | -142.11319 | 35120 ft | 477 kts | 104° |
| 2026-04-22 03:47 | 59.88467 | -141.98662 | 35119 ft | 477 kts | 104° |
| 2026-04-22 03:48 | 59.86572 | -141.86011 | 35123 ft | 477 kts | 104° |
| 2026-04-22 03:48 | 59.84666 | -141.73381 | 35123 ft | 477 kts | 104° |
| 2026-04-22 03:49 | 59.82749 | -141.60774 | 35118 ft | 476 kts | 104° |
| 2026-04-22 03:49 | 59.80819 | -141.48175 | 35123 ft | 476 kts | 104° |
| 2026-04-22 03:50 | 59.78892 | -141.35683 | 35118 ft | 476 kts | 104° |
| 2026-04-22 03:50 | 59.76940 | -141.23123 | 35121 ft | 476 kts | 104° |
| 2026-04-22 03:51 | 59.74972 | -141.10559 | 35126 ft | 476 kts | 105° |
| 2026-04-22 03:51 | 59.72996 | -140.98029 | 35119 ft | 476 kts | 104° |
| 2026-04-22 03:52 | 59.71007 | -140.85502 | 35130 ft | 477 kts | 105° |
| 2026-04-22 03:52 | 59.69014 | -140.73047 | 35133 ft | 478 kts | 105° |
| 2026-04-22 03:53 | 59.66994 | -140.60511 | 35129 ft | 478 kts | 105° |
| 2026-04-22 03:53 | 59.64962 | -140.47990 | 35132 ft | 478 kts | 105° |
| 2026-04-22 03:54 | 59.62915 | -140.35462 | 35131 ft | 478 kts | 105° |
| 2026-04-22 03:54 | 59.60853 | -140.22936 | 35125 ft | 478 kts | 105° |
| 2026-04-22 03:55 | 59.58788 | -140.10474 | 35130 ft | 477 kts | 105° |
| 2026-04-22 03:55 | 59.56724 | -139.98101 | 35130 ft | 477 kts | 105° |
| 2026-04-22 03:56 | 59.54637 | -139.85676 | 35137 ft | 477 kts | 105° |
| 2026-04-22 03:56 | 59.52541 | -139.73269 | 35126 ft | 476 kts | 105° |
| 2026-04-22 03:57 | 59.50189 | -139.61051 | 35140 ft | 478 kts | 116° |
| 2026-04-22 03:57 | 59.47006 | -139.49570 | 35144 ft | 478 kts | 118° |
| 2026-04-22 03:58 | 59.43763 | -139.38264 | 35144 ft | 478 kts | 118° |
| 2026-04-22 03:58 | 59.40524 | -139.26854 | 35144 ft | 478 kts | 118° |
| 2026-04-22 03:59 | 59.37309 | -139.15451 | 35135 ft | 478 kts | 117° |
| 2026-04-22 03:59 | 59.34089 | -139.04052 | 35141 ft | 477 kts | 117° |
| 2026-04-22 04:00 | 59.30865 | -138.92698 | 35145 ft | 477 kts | 118° |
| 2026-04-22 04:00 | 59.27622 | -138.81343 | 35147 ft | 477 kts | 118° |
| 2026-04-22 04:01 | 59.24379 | -138.70045 | 35148 ft | 477 kts | 118° |
| 2026-04-22 04:01 | 59.21110 | -138.58716 | 35145 ft | 477 kts | 118° |
| 2026-04-22 04:02 | 59.17836 | -138.47419 | 34626 ft | 481 kts | 118° |
| 2026-04-22 04:02 | 59.16185 | -138.41746 | 34158 ft | 482 kts | 117° |
| 2026-04-22 04:02 | 59.14531 | -138.36074 | 33670 ft | 480 kts | 117° |
| 2026-04-22 04:03 | 59.12904 | -138.30510 | 33235 ft | 478 kts | 117° |
| 2026-04-22 04:03 | 59.11261 | -138.24904 | 32817 ft | 475 kts | 117° |
| 2026-04-22 04:03 | 59.09628 | -138.19346 | 32420 ft | 472 kts | 117° |
| 2026-04-22 04:03 | 59.08002 | -138.13825 | 32003 ft | 470 kts | 117° |
| 2026-04-22 04:04 | 59.06379 | -138.08343 | 31625 ft | 466 kts | 118° |
| 2026-04-22 04:04 | 59.04759 | -138.02890 | 31213 ft | 463 kts | 118° |
| 2026-04-22 04:04 | 59.03160 | -137.97486 | 30855 ft | 460 kts | 118° |
| 2026-04-22 04:04 | 59.01563 | -137.92087 | 30464 ft | 459 kts | 118° |
| 2026-04-22 04:05 | 58.99969 | -137.86719 | 30041 ft | 459 kts | 118° |
| 2026-04-22 04:05 | 58.98368 | -137.81361 | 29590 ft | 458 kts | 118° |
| 2026-04-22 04:05 | 58.96758 | -137.75983 | 28777 ft | 464 kts | 118° |
| 2026-04-22 04:05 | 58.95139 | -137.70583 | 28306 ft | 462 kts | 118° |
| 2026-04-22 04:06 | 58.93544 | -137.65293 | 27812 ft | 459 kts | 118° |
| 2026-04-22 04:06 | 58.91942 | -137.59976 | 27449 ft | 456 kts | 118° |
| 2026-04-22 04:06 | 58.90354 | -137.54671 | 26989 ft | 455 kts | 118° |
| 2026-04-22 04:06 | 58.88733 | -137.49450 | 26512 ft | 450 kts | 120° |
| 2026-04-22 04:07 | 58.87231 | -137.44235 | 26224 ft | 438 kts | 117° |
| 2026-04-22 04:07 | 58.85712 | -137.39142 | 25796 ft | 436 kts | 119° |
| 2026-04-22 04:07 | 58.84185 | -137.34075 | 25341 ft | 435 kts | 118° |
| 2026-04-22 04:07 | 58.82668 | -137.29055 | 24950 ft | 430 kts | 120° |
| 2026-04-22 04:08 | 58.81130 | -137.24108 | 24545 ft | 426 kts | 120° |
| 2026-04-22 04:08 | 58.79609 | -137.19224 | 24140 ft | 425 kts | 120° |
| 2026-04-22 04:08 | 58.78095 | -137.14343 | 23715 ft | 423 kts | 120° |
| 2026-04-22 04:08 | 58.76602 | -137.09524 | 23260 ft | 423 kts | 120° |
| 2026-04-22 04:09 | 58.75093 | -137.04660 | 22796 ft | 422 kts | 120° |
| 2026-04-22 04:09 | 58.73596 | -136.99838 | 22378 ft | 418 kts | 119° |
| 2026-04-22 04:09 | 58.72116 | -136.95067 | 21990 ft | 413 kts | 119° |
| 2026-04-22 04:09 | 58.70655 | -136.90347 | 21585 ft | 409 kts | 119° |
| 2026-04-22 04:10 | 58.69204 | -136.85664 | 21182 ft | 405 kts | 119° |
| 2026-04-22 04:10 | 58.67766 | -136.81036 | 20786 ft | 402 kts | 120° |
| 2026-04-22 04:10 | 58.66338 | -136.76451 | 20393 ft | 398 kts | 120° |
| 2026-04-22 04:10 | 58.64917 | -136.71896 | 20009 ft | 396 kts | 120° |
| 2026-04-22 04:11 | 58.63504 | -136.67370 | 19611 ft | 394 kts | 120° |
| 2026-04-22 04:11 | 58.62093 | -136.62879 | 19180 ft | 391 kts | 120° |
| 2026-04-22 04:11 | 58.60696 | -136.58442 | 18843 ft | 386 kts | 120° |
| 2026-04-22 04:11 | 58.59312 | -136.54045 | 18423 ft | 385 kts | 120° |
| 2026-04-22 04:12 | 58.57930 | -136.49660 | 17966 ft | 381 kts | 120° |
| 2026-04-22 04:12 | 58.56565 | -136.45336 | 17609 ft | 376 kts | 120° |
| 2026-04-22 04:12 | 58.55208 | -136.41047 | 17070 ft | 376 kts | 120° |
| 2026-04-22 04:12 | 58.53865 | -136.36834 | 16652 ft | 373 kts | 121° |
| 2026-04-22 04:13 | 58.52527 | -136.32612 | 16259 ft | 370 kts | 121° |
| 2026-04-22 04:13 | 58.51194 | -136.28415 | 15853 ft | 367 kts | 121° |
| 2026-04-22 04:13 | 58.49875 | -136.24276 | 15464 ft | 360 kts | 121° |
| 2026-04-22 04:13 | 58.48585 | -136.20240 | 15097 ft | 350 kts | 121° |
| 2026-04-22 04:14 | 58.47752 | -136.17636 | 14845 ft | 344 kts | 121° |
| 2026-04-22 04:14 | 58.46519 | -136.13785 | 14510 ft | 334 kts | 121° |
| 2026-04-22 04:14 | 58.45319 | -136.10046 | 14145 ft | 326 kts | 121° |
| 2026-04-22 04:14 | 58.44149 | -136.06404 | 13797 ft | 318 kts | 121° |
| 2026-04-22 04:15 | 58.42999 | -136.02826 | 13453 ft | 313 kts | 121° |
| 2026-04-22 04:15 | 58.41861 | -135.99294 | 13131 ft | 313 kts | 121° |
| 2026-04-22 04:15 | 58.40797 | -135.95991 | 12825 ft | 319 kts | 121° |
| 2026-04-22 04:15 | 58.39620 | -135.92343 | 12503 ft | 325 kts | 121° |
| 2026-04-22 04:16 | 58.38437 | -135.88690 | 12126 ft | 321 kts | 121° |
| 2026-04-22 04:16 | 58.36401 | -135.81456 | 11433 ft | 298 kts | 97° |
| 2026-04-22 04:16 | 58.36214 | -135.77721 | 11458 ft | 281 kts | 87° |
| 2026-04-22 04:17 | 58.36198 | -135.73952 | 11094 ft | 290 kts | 85° |
| 2026-04-22 04:17 | 58.36225 | -135.70016 | 10770 ft | 303 kts | 85° |
| 2026-04-22 04:17 | 58.36250 | -135.65984 | 10375 ft | 303 kts | 85° |
| 2026-04-22 04:17 | 58.36263 | -135.62011 | 10002 ft | 296 kts | 86° |
| 2026-04-22 04:18 | 58.36267 | -135.58142 | 9607 ft | 288 kts | 86° |
| 2026-04-22 04:18 | 58.36266 | -135.54379 | 9286 ft | 279 kts | 87° |
| 2026-04-22 04:18 | 58.36262 | -135.50747 | 8954 ft | 270 kts | 88° |
| 2026-04-22 04:18 | 58.36256 | -135.47215 | 8645 ft | 265 kts | 88° |
| 2026-04-22 04:19 | 58.36249 | -135.43695 | 8343 ft | 268 kts | 89° |
| 2026-04-22 04:19 | 58.36241 | -135.40102 | 8045 ft | 275 kts | 89° |
| 2026-04-22 04:19 | 58.36231 | -135.36411 | 7697 ft | 281 kts | 89° |
| 2026-04-22 04:19 | 58.36220 | -135.32704 | 7377 ft | 280 kts | 90° |
| 2026-04-22 04:20 | 58.36207 | -135.29010 | 7010 ft | 277 kts | 90° |
| 2026-04-22 04:20 | 58.36192 | -135.25361 | 6673 ft | 275 kts | 90° |
| 2026-04-22 04:20 | 58.36176 | -135.21724 | 6347 ft | 273 kts | 90° |
| 2026-04-22 04:20 | 58.36159 | -135.18138 | 6232 ft | 271 kts | 90° |
| 2026-04-22 04:21 | 58.36149 | -135.14569 | 5945 ft | 265 kts | 90° |
| 2026-04-22 04:21 | 58.36140 | -135.11170 | 5778 ft | 250 kts | 90° |
| 2026-04-22 04:21 | 58.36129 | -135.07933 | 5673 ft | 240 kts | 90° |
| 2026-04-22 04:21 | 58.36117 | -135.04821 | 5305 ft | 236 kts | 90° |
| 2026-04-22 04:22 | 58.36106 | -135.01740 | 4960 ft | 231 kts | 91° |
| 2026-04-22 04:22 | 58.36093 | -134.98709 | 4592 ft | 227 kts | 91° |
| 2026-04-22 04:22 | 58.36080 | -134.95789 | 4478 ft | 212 kts | 91° |
| 2026-04-22 04:22 | 58.36067 | -134.93092 | 4375 ft | 197 kts | 91° |
| 2026-04-22 04:23 | 58.36054 | -134.90398 | 3763 ft | 205 kts | 91° |
| 2026-04-22 04:23 | 58.36037 | -134.87711 | 3360 ft | 198 kts | 92° |
| 2026-04-22 04:23 | 58.36018 | -134.85181 | 3036 ft | 184 kts | 92° |
| 2026-04-22 04:23 | 58.36001 | -134.82830 | 2774 ft | 174 kts | 92° |
| 2026-04-22 04:24 | 58.36017 | -134.80532 | 2426 ft | 175 kts | 87° |
| 2026-04-22 04:24 | 58.36105 | -134.78247 | 2145 ft | 170 kts | 88° |
| 2026-04-22 04:24 | 58.36183 | -134.76004 | 1921 ft | 169 kts | 88° |
| 2026-04-22 04:24 | 58.36268 | -134.73774 | 1683 ft | 169 kts | 88° |
| 2026-04-22 04:25 | 58.36351 | -134.71575 | 1498 ft | 166 kts | 87° |
| 2026-04-22 04:25 | 58.36430 | -134.69460 | 1254 ft | 154 kts | 90° |
| 2026-04-22 04:25 | 58.36369 | -134.67503 | 1062 ft | 147 kts | 98° |
| 2026-04-22 04:25 | 58.36240 | -134.65621 | 846 ft | 141 kts | 101° |
| 2026-04-22 04:26 | 58.36125 | -134.63744 | 567 ft | 144 kts | 99° |
| 2026-04-22 04:26 | 58.36016 | -134.61863 | 426 ft | 140 kts | 97° |
| 2026-04-22 04:26 | 58.35843 | -134.60067 | 119 ft | 134 kts | 107° |
| 2026-04-22 04:26 | 58.35614 | -134.58480 | 32 ft | 106 kts | 104° |
| 2026-04-22 04:27 | 58.35480 | -134.57523 | 34 ft | 43 kts | 104° |
| 2026-04-22 04:27 | 58.35468 | -134.57282 | 33 ft | 11 kts | 32° |
| 2026-04-22 04:27 | 58.35553 | -134.57300 | 33 ft | 14 kts | 321° |
| 2026-04-22 04:27 | 58.35587 | -134.57490 | 33 ft | 16 kts | 284° |
| 2026-04-22 04:28 | 58.35617 | -134.57717 | 32 ft | 19 kts | 284° |
| 2026-04-22 04:28 | 58.35654 | -134.57971 | 33 ft | 21 kts | 285° |
| 2026-04-22 04:28 | 58.35689 | -134.58223 | 31 ft | 15 kts | 284° |
| 2026-04-22 04:28 | 58.35756 | -134.58302 | 33 ft | 13 kts | 359° |
| 2026-04-22 04:29 | 58.35825 | -134.58302 | 33 ft | 3 kts | 360° |